createdAt,value
2023-03-29T00:02:01.094Z,3.24
2023-03-29T00:04:35.907Z,2.95
2023-03-29T00:07:06.575Z,3.37
2023-03-29T00:09:37.367Z,3.01
2023-03-29T00:12:07.637Z,3.15
2023-03-29T00:14:37.083Z,3.11
2023-03-29T00:17:05.814Z,3.07
2023-03-29T00:19:36.741Z,3.42
2023-03-29T00:22:06.319Z,2.91
2023-03-29T00:24:34.257Z,3.09
2023-03-29T00:27:02.098Z,3.22
2023-03-29T00:29:29.876Z,3.34
2023-03-29T00:31:57.772Z,3.46
2023-03-29T00:34:30.844Z,3.21
2023-03-29T00:36:59.123Z,3.25
2023-03-29T00:39:28.169Z,3.30
2023-03-29T00:41:56.576Z,3.21
2023-03-29T00:44:56.907Z,3.57
2023-03-29T00:47:44.999Z,3.57
2023-03-29T00:50:38.059Z,3.32
2023-03-29T00:53:17.975Z,3.44
2023-03-29T00:56:02.548Z,3.65
2023-03-29T00:58:46.693Z,3.50
2023-03-29T01:01:28.771Z,3.50
2023-03-29T01:04:08.588Z,3.43
2023-03-29T01:06:43.583Z,3.29
2023-03-29T01:09:16.517Z,3.42
2023-03-29T01:11:54.804Z,3.26
2023-03-29T01:14:49.026Z,3.39
2023-03-29T01:17:17.176Z,3.33
2023-03-29T01:19:51.598Z,3.24
2023-03-29T01:22:28.446Z,2.94
2023-03-29T01:25:11.357Z,3.35
2023-03-29T01:27:54.676Z,3.14
2023-03-29T01:30:37.446Z,3.07
2023-03-29T01:33:38.997Z,3.40
2023-03-29T01:36:31.520Z,3.25
2023-03-29T01:39:03.693Z,3.44
2023-03-29T01:41:40.375Z,3.26
2023-03-29T01:44:50.102Z,3.25
2023-03-29T01:47:38.711Z,3.05
2023-03-29T01:50:26.744Z,3.30
2023-03-29T01:53:07.658Z,3.24
2023-03-29T01:55:45.231Z,3.19
2023-03-29T01:58:16.608Z,3.10
2023-03-29T02:00:46.648Z,3.14
2023-03-29T02:03:17.685Z,3.05
2023-03-29T02:05:46.885Z,2.97
2023-03-29T02:08:17.815Z,2.93
2023-03-29T02:10:46.129Z,2.93
2023-03-29T02:13:14.165Z,2.98
2023-03-29T02:15:44.463Z,2.95
2023-03-29T02:18:14.803Z,3.24
2023-03-29T02:20:49.694Z,3.03
2023-03-29T02:23:45.570Z,3.16
2023-03-29T02:26:14.943Z,3.13
2023-03-29T02:28:44.105Z,3.29
2023-03-29T02:31:31.281Z,2.97
2023-03-29T02:34:20.637Z,2.79
2023-03-29T02:36:56.989Z,3.25
2023-03-29T02:39:29.088Z,2.98
2023-03-29T02:41:58.381Z,2.99
2023-03-29T02:44:30.968Z,2.93
2023-03-29T02:47:13.806Z,3.09
2023-03-29T02:49:41.831Z,3.14
2023-03-29T02:52:16.213Z,3.16
2023-03-29T02:54:49.013Z,2.93
2023-03-29T02:57:17.399Z,3.16
2023-03-29T02:59:45.295Z,2.88
2023-03-29T03:02:13.808Z,3.20
2023-03-29T03:04:43.315Z,3.33
2023-03-29T03:07:12.065Z,3.25
2023-03-29T03:09:40.203Z,2.79
2023-03-29T03:12:09.973Z,3.06
2023-03-29T03:14:38.124Z,3.02
2023-03-29T03:17:06.045Z,3.33
2023-03-29T03:19:34.691Z,2.74
2023-03-29T03:22:03.285Z,3.16
2023-03-29T03:24:32.694Z,3.23
2023-03-29T03:27:00.949Z,3.22
2023-03-29T03:29:29.095Z,3.30
2023-03-29T03:32:34.522Z,3.17
2023-03-29T03:35:34.981Z,3.35
2023-03-29T03:38:02.945Z,3.22
2023-03-29T03:40:31.153Z,3.31
2023-03-29T03:42:59.599Z,3.12
2023-03-29T03:45:28.023Z,3.26
2023-03-29T03:48:02.347Z,3.44
2023-03-29T03:50:54.775Z,3.42
2023-03-29T03:53:24.924Z,3.17
2023-03-29T03:56:11.656Z,3.09
2023-03-29T03:58:57.314Z,3.31
2023-03-29T04:01:27.457Z,2.99
2023-03-29T04:04:14.578Z,3.44
2023-03-29T04:06:53.259Z,3.39
2023-03-29T04:09:22.750Z,3.28
2023-03-29T04:12:01.957Z,3.31
2023-03-29T04:14:32.283Z,3.44
2023-03-29T04:17:00.387Z,3.33
2023-03-29T04:19:48.545Z,3.18
2023-03-29T04:22:16.558Z,3.38
2023-03-29T04:24:44.426Z,3.35
2023-03-29T04:27:38.311Z,3.31
2023-03-29T04:30:13.875Z,3.33
2023-03-29T04:32:59.990Z,3.33
2023-03-29T04:35:28.826Z,3.34
2023-03-29T04:37:57.016Z,3.50
2023-03-29T04:40:25.209Z,3.39
2023-03-29T04:43:14.543Z,3.41
2023-03-29T04:45:54.325Z,3.10
2023-03-29T04:48:50.381Z,3.41
2023-03-29T04:51:24.728Z,3.24
2023-03-29T04:53:54.975Z,3.61
2023-03-29T04:56:24.937Z,3.40
2023-03-29T04:59:13.087Z,3.24
2023-03-29T05:01:41.644Z,3.25
2023-03-29T05:04:12.613Z,3.34
2023-03-29T05:06:50.040Z,3.27
2023-03-29T05:09:18.266Z,3.52
2023-03-29T05:11:51.723Z,3.48
2023-03-29T05:14:21.848Z,3.39
2023-03-29T05:16:50.323Z,3.60
2023-03-29T05:19:19.227Z,3.32
2023-03-29T05:21:51.093Z,3.42
2023-03-29T05:24:22.872Z,3.61
2023-03-29T05:26:53.650Z,3.40
2023-03-29T05:29:21.805Z,3.55
2023-03-29T05:31:55.870Z,3.62
2023-03-29T05:34:23.785Z,3.66
2023-03-29T05:36:57.063Z,3.45
2023-03-29T05:39:26.183Z,3.53
2023-03-29T05:41:55.300Z,3.58
2023-03-29T05:44:29.649Z,3.39
2023-03-29T05:47:06.730Z,3.51
2023-03-29T05:49:35.242Z,3.47
2023-03-29T05:52:09.984Z,3.51
2023-03-29T05:54:39.668Z,3.54
2023-03-29T05:57:08.515Z,3.80
2023-03-29T05:59:37.345Z,3.62
2023-03-29T06:02:06.344Z,3.51
2023-03-29T06:04:38.666Z,3.59
2023-03-29T06:07:24.933Z,3.87
2023-03-29T06:10:16.287Z,3.57
2023-03-29T06:12:49.521Z,3.62
2023-03-29T06:15:19.957Z,3.67
2023-03-29T06:17:51.002Z,3.78
2023-03-29T06:20:19.013Z,3.29
2023-03-29T06:22:52.749Z,3.55
2023-03-29T06:25:20.664Z,3.54
2023-03-29T06:27:50.842Z,3.83
2023-03-29T06:30:20.983Z,4.01
2023-03-29T06:32:54.928Z,3.96
2023-03-29T06:35:46.220Z,3.71
2023-03-29T06:38:17.563Z,3.98
2023-03-29T06:41:09.088Z,4.10
2023-03-29T06:43:57.862Z,3.80
2023-03-29T06:46:33.159Z,3.71
2023-03-29T06:49:06.550Z,3.46
2023-03-29T06:52:07.459Z,3.94
2023-03-29T06:54:36.156Z,4.07
2023-03-29T06:57:05.652Z,3.69
2023-03-29T06:59:35.010Z,3.76
2023-03-29T07:02:23.176Z,3.82
2023-03-29T07:04:56.340Z,3.56
2023-03-29T07:07:53.783Z,3.65
2023-03-29T07:10:38.541Z,3.73
2023-03-29T07:13:42.828Z,3.57
2023-03-29T07:16:14.440Z,3.68
2023-03-29T07:18:56.751Z,3.91
2023-03-29T07:21:54.554Z,3.93
2023-03-29T07:24:26.754Z,3.76
2023-03-29T07:27:03.151Z,4.03
2023-03-29T07:29:33.571Z,3.91
2023-03-29T07:32:01.612Z,3.70
2023-03-29T07:34:44.506Z,3.79
2023-03-29T07:37:24.813Z,3.51
2023-03-29T07:39:53.945Z,3.74
2023-03-29T07:42:50.905Z,3.35
2023-03-29T07:45:26.563Z,3.84
2023-03-29T07:48:02.373Z,3.63
2023-03-29T07:50:47.034Z,3.49
2023-03-29T07:53:16.088Z,3.52
2023-03-29T07:55:47.927Z,3.83
2023-03-29T07:58:35.252Z,3.86
2023-03-29T08:01:04.550Z,3.83
2023-03-29T08:03:55.813Z,3.80
2023-03-29T08:06:34.554Z,3.63
2023-03-29T08:09:02.459Z,3.52
2023-03-29T08:11:30.283Z,3.57
2023-03-29T08:14:04.067Z,3.41
2023-03-29T08:16:35.135Z,3.83
2023-03-29T08:19:09.013Z,3.57
2023-03-29T08:22:03.126Z,3.11
2023-03-29T08:24:46.658Z,3.45
2023-03-29T08:27:14.982Z,3.53
2023-03-29T08:29:42.964Z,3.33
2023-03-29T08:32:11.829Z,3.63
2023-03-29T08:34:39.735Z,3.43
2023-03-29T08:37:22.049Z,3.68
2023-03-29T08:39:52.049Z,3.41
2023-03-29T08:42:40.973Z,3.38
2023-03-29T08:45:42.417Z,3.36
2023-03-29T08:48:29.114Z,3.50
2023-03-29T08:51:13.572Z,3.10
2023-03-29T08:53:58.050Z,3.41
2023-03-29T08:56:36.177Z,3.67
2023-03-29T08:59:33.308Z,3.35
2023-03-29T09:02:17.920Z,3.42
2023-03-29T09:04:52.614Z,3.41
2023-03-29T09:07:31.911Z,3.51
2023-03-29T09:10:04.291Z,3.52
2023-03-29T09:13:06.332Z,3.35
2023-03-29T09:16:06.213Z,3.52
2023-03-29T09:19:10.915Z,3.45
2023-03-29T09:21:56.157Z,3.69
2023-03-29T09:24:43.862Z,3.64
2023-03-29T09:27:31.659Z,3.82
2023-03-29T09:30:32.328Z,3.90
2023-03-29T09:33:15.662Z,3.78
2023-03-29T09:36:27.592Z,3.89
2023-03-29T09:38:56.530Z,3.93
2023-03-29T09:41:30.624Z,4.02
2023-03-29T09:44:12.713Z,3.89
2023-03-29T09:46:57.172Z,3.64
2023-03-29T09:49:36.333Z,4.34
2023-03-29T09:52:14.866Z,3.93
2023-03-29T09:54:47.551Z,4.17
2023-03-29T09:57:24.081Z,4.19
2023-03-29T09:59:52.898Z,3.83
2023-03-29T10:02:22.411Z,4.02
2023-03-29T10:05:04.015Z,3.70
2023-03-29T10:07:46.381Z,3.83
2023-03-29T10:10:35.531Z,4.02
2023-03-29T10:13:13.395Z,3.96
2023-03-29T10:15:41.975Z,3.76
2023-03-29T10:18:14.222Z,3.89
2023-03-29T10:20:42.080Z,3.72
2023-03-29T10:23:17.622Z,3.89
2023-03-29T10:25:45.607Z,4.01
2023-03-29T10:28:18.688Z,4.20
2023-03-29T10:30:53.527Z,4.26
2023-03-29T10:33:24.505Z,4.27
2023-03-29T10:35:52.772Z,3.75
2023-03-29T10:38:28.015Z,3.77
2023-03-29T10:41:10.076Z,3.88
2023-03-29T10:43:47.002Z,3.92
2023-03-29T10:46:26.290Z,3.86
2023-03-29T10:49:10.157Z,4.16
2023-03-29T10:51:38.261Z,4.09
2023-03-29T10:54:14.027Z,4.08
2023-03-29T10:56:58.234Z,4.07
2023-03-29T10:59:40.722Z,3.84
2023-03-29T11:02:14.429Z,3.87
2023-03-29T11:05:09.578Z,3.52
2023-03-29T11:07:50.152Z,3.60
2023-03-29T11:10:27.253Z,3.59
2023-03-29T11:13:00.936Z,3.43
2023-03-29T11:16:08.501Z,3.67
2023-03-29T11:18:42.105Z,3.48
2023-03-29T11:21:26.790Z,3.52
2023-03-29T11:24:31.516Z,3.19
2023-03-29T11:27:11.913Z,3.53
2023-03-29T11:30:17.537Z,3.03
2023-03-29T11:33:25.389Z,3.08
2023-03-29T11:35:59.011Z,3.06
2023-03-29T11:38:35.761Z,3.05
2023-03-29T11:41:23.396Z,2.72
2023-03-29T11:44:13.553Z,2.92
2023-03-29T11:46:49.970Z,2.47
2023-03-29T11:49:37.166Z,2.52
2023-03-29T11:52:20.030Z,2.42
2023-03-29T11:55:03.714Z,2.31
2023-03-29T11:57:51.368Z,2.42
2023-03-29T12:00:33.286Z,2.40
2023-03-29T12:03:15.441Z,2.46
2023-03-29T12:05:49.628Z,2.47
2023-03-29T12:08:32.143Z,2.50
2023-03-29T12:11:12.059Z,2.46
2023-03-29T12:13:48.077Z,2.47
2023-03-29T12:16:37.431Z,2.45
2023-03-29T12:19:20.457Z,2.37
2023-03-29T12:21:51.019Z,2.32
2023-03-29T12:24:22.240Z,2.44
2023-03-29T12:26:53.028Z,2.52
2023-03-29T12:29:55.810Z,2.26
2023-03-29T12:32:48.089Z,2.53
2023-03-29T12:35:59.163Z,2.35
2023-03-29T12:38:51.450Z,2.47
2023-03-29T12:41:41.755Z,2.51
2023-03-29T12:44:23.636Z,2.21
2023-03-29T12:47:00.592Z,2.36
2023-03-29T12:49:40.172Z,1.95
2023-03-29T12:52:34.266Z,2.12
2023-03-29T12:55:16.980Z,2.08
2023-03-29T12:58:08.465Z,2.23
2023-03-29T13:00:45.128Z,2.12
2023-03-29T13:03:48.413Z,2.15
2023-03-29T13:06:29.479Z,2.15
2023-03-29T13:09:22.141Z,2.31
2023-03-29T13:11:58.772Z,2.37
2023-03-29T13:14:32.870Z,2.24
2023-03-29T13:17:18.344Z,2.42
2023-03-29T13:19:49.102Z,2.33
2023-03-29T13:22:35.855Z,2.20
2023-03-29T13:25:32.751Z,2.18
2023-03-29T13:28:27.250Z,2.29
2023-03-29T13:31:26.761Z,2.35
2023-03-29T13:34:28.491Z,2.46
2023-03-29T13:37:14.954Z,2.44
2023-03-29T13:39:53.099Z,2.49
2023-03-29T13:42:34.336Z,2.47
2023-03-29T13:45:26.450Z,2.44
2023-03-29T13:48:20.719Z,2.44
2023-03-29T13:50:58.524Z,2.36
2023-03-29T13:53:37.358Z,2.45
2023-03-29T13:56:11.169Z,2.68
2023-03-29T13:58:58.170Z,2.52
2023-03-29T14:01:58.381Z,2.43
2023-03-29T14:04:39.866Z,2.29
2023-03-29T14:07:12.612Z,2.17
2023-03-29T14:09:46.131Z,2.33
2023-03-29T14:12:15.902Z,2.44
2023-03-29T14:14:58.156Z,2.31
2023-03-29T14:17:26.818Z,2.33
2023-03-29T14:19:59.180Z,2.43
2023-03-29T14:22:33.680Z,2.11
2023-03-29T14:25:15.529Z,1.99
2023-03-29T14:27:43.905Z,1.91
2023-03-29T14:30:37.853Z,2.16
2023-03-29T14:33:05.637Z,2.01
2023-03-29T14:35:34.317Z,2.04
2023-03-29T14:38:03.802Z,2.02
2023-03-29T14:40:32.848Z,2.22
2023-03-29T14:43:08.089Z,1.75
2023-03-29T14:45:37.099Z,1.90
2023-03-29T14:48:06.432Z,1.69
2023-03-29T14:50:34.797Z,1.81
2023-03-29T14:53:04.073Z,1.69
2023-03-29T14:55:32.983Z,1.52
2023-03-29T14:58:00.697Z,1.68
2023-03-29T15:00:42.460Z,1.66
2023-03-29T15:03:15.475Z,1.44
2023-03-29T15:05:50.131Z,1.85
2023-03-29T15:08:28.118Z,2.09
2023-03-29T15:10:56.065Z,1.86
2023-03-29T15:13:26.303Z,1.74
2023-03-29T15:16:01.001Z,1.84
2023-03-29T15:18:40.175Z,1.84
2023-03-29T15:21:10.239Z,1.87
2023-03-29T15:23:48.133Z,1.95
2023-03-29T15:26:23.549Z,1.86
2023-03-29T15:28:55.724Z,1.76
2023-03-29T15:31:34.728Z,2.14
2023-03-29T15:34:09.246Z,2.22
2023-03-29T15:36:45.437Z,2.06
2023-03-29T15:39:17.156Z,1.97
2023-03-29T15:41:48.244Z,1.99
2023-03-29T15:44:17.875Z,1.96
2023-03-29T15:46:45.940Z,2.02
2023-03-29T15:49:14.122Z,2.04
2023-03-29T15:51:41.919Z,2.15
2023-03-29T15:54:09.687Z,2.40
2023-03-29T15:56:49.847Z,2.69
2023-03-29T15:59:18.193Z,2.94
2023-03-29T16:01:46.920Z,2.78
2023-03-29T16:04:17.843Z,2.69
2023-03-29T16:06:48.757Z,2.65
2023-03-29T16:09:17.039Z,2.36
2023-03-29T16:11:46.530Z,2.20
2023-03-29T16:14:27.465Z,2.12
2023-03-29T16:16:57.377Z,2.03
2023-03-29T16:19:27.179Z,1.93
2023-03-29T16:21:55.413Z,1.92
2023-03-29T16:24:26.356Z,1.93
2023-03-29T16:26:56.085Z,1.82
2023-03-29T16:29:25.399Z,1.85
2023-03-29T16:31:54.150Z,1.71
2023-03-29T16:34:22.986Z,1.79
2023-03-29T16:36:51.126Z,2.07
2023-03-29T16:39:19.572Z,2.02
2023-03-29T16:41:49.071Z,1.89
2023-03-29T16:44:22.974Z,1.96
2023-03-29T16:46:57.876Z,1.81
2023-03-29T16:49:25.641Z,2.02
2023-03-29T16:51:53.328Z,2.11
2023-03-29T16:54:21.242Z,2.33
2023-03-29T16:56:49.046Z,1.88
2023-03-29T16:59:16.812Z,2.03
2023-03-29T17:01:44.729Z,2.11
2023-03-29T17:04:12.564Z,2.02
2023-03-29T17:06:41.069Z,1.89
2023-03-29T17:09:09.755Z,2.08
2023-03-29T17:11:37.538Z,2.12
2023-03-29T17:14:05.239Z,2.03
2023-03-29T17:16:33.135Z,2.19
2023-03-29T17:19:01.071Z,2.14
2023-03-29T17:21:30.851Z,2.15
2023-03-29T17:23:58.590Z,2.48
2023-03-29T17:26:26.244Z,2.46
2023-03-29T17:28:54.015Z,2.45
2023-03-29T17:31:21.863Z,2.80
2023-03-29T17:33:52.177Z,2.93
2023-03-29T17:36:24.154Z,2.79
2023-03-29T17:38:52.731Z,2.59
2023-03-29T17:41:21.557Z,2.75
2023-03-29T17:43:50.945Z,2.78
2023-03-29T17:46:22.868Z,2.65
2023-03-29T17:48:51.960Z,2.97
2023-03-29T17:51:20.621Z,3.13
2023-03-29T17:53:48.318Z,3.07
2023-03-29T17:56:16.383Z,3.07
2023-03-29T17:58:44.023Z,3.26
2023-03-29T18:01:13.180Z,2.94
2023-03-29T18:03:41.394Z,3.22
2023-03-29T18:06:09.892Z,3.66
2023-03-29T18:08:37.731Z,3.49
2023-03-29T18:11:11.938Z,3.68
2023-03-29T18:13:40.349Z,3.44
2023-03-29T18:16:09.069Z,3.82
2023-03-29T18:18:37.976Z,3.46
2023-03-29T18:21:10.036Z,3.27
2023-03-29T18:23:43.321Z,3.41
2023-03-29T18:26:11.055Z,3.26
2023-03-29T18:28:38.803Z,3.70
2023-03-29T18:31:07.527Z,3.65
2023-03-29T18:33:35.893Z,3.58
2023-03-29T18:36:07.827Z,3.75
2023-03-29T18:38:40.801Z,3.55
2023-03-29T18:41:09.105Z,3.48
2023-03-29T18:43:38.773Z,3.37
2023-03-29T18:46:08.017Z,3.37
2023-03-29T18:48:39.094Z,3.58
2023-03-29T18:51:08.701Z,3.59
2023-03-29T18:53:37.798Z,3.38
2023-03-29T18:56:06.728Z,3.33
2023-03-29T18:58:34.921Z,3.17
2023-03-29T19:01:05.215Z,3.48
2023-03-29T19:03:34.554Z,3.38
2023-03-29T19:06:03.219Z,3.28
2023-03-29T19:08:32.940Z,3.33
2023-03-29T19:11:06.097Z,3.46
2023-03-29T19:13:34.489Z,3.30
2023-03-29T19:16:03.795Z,3.14
2023-03-29T19:18:31.769Z,3.23
2023-03-29T19:20:59.552Z,2.95
2023-03-29T19:23:28.535Z,3.02
2023-03-29T19:25:58.687Z,3.07
2023-03-29T19:28:27.462Z,3.03
2023-03-29T19:30:56.602Z,3.02
2023-03-29T19:33:24.690Z,3.19
2023-03-29T19:35:52.892Z,3.01
2023-03-29T19:38:21.547Z,2.96
2023-03-29T19:40:51.690Z,3.00
2023-03-29T19:43:20.786Z,3.16
2023-03-29T19:45:50.737Z,3.27
2023-03-29T19:50:51.392Z,3.10
2023-03-29T19:53:19.117Z,3.07
2023-03-29T19:55:46.945Z,2.87
2023-03-29T19:58:14.766Z,2.82
2023-03-29T20:00:42.471Z,3.16
2023-03-29T20:03:10.722Z,3.06
2023-03-29T20:05:40.144Z,2.82
2023-03-29T20:08:08.450Z,3.07
2023-03-29T20:10:37.225Z,3.21
2023-03-29T20:13:06.654Z,3.33
2023-03-29T20:15:35.090Z,3.22
2023-03-29T20:18:03.624Z,3.14
2023-03-29T20:20:31.834Z,2.86
2023-03-29T20:23:04.500Z,2.87
2023-03-29T20:25:36.570Z,3.09
2023-03-29T20:28:04.828Z,2.96
2023-03-29T20:30:32.680Z,2.60
2023-03-29T20:33:01.489Z,2.82
2023-03-29T20:35:29.382Z,2.49
2023-03-29T20:37:57.044Z,2.55
2023-03-29T20:40:25.008Z,2.80
2023-03-29T20:42:54.351Z,2.80
2023-03-29T20:45:22.363Z,2.72
2023-03-29T20:48:02.456Z,2.66
2023-03-29T20:50:30.548Z,2.65
2023-03-29T20:53:03.688Z,2.64
2023-03-29T20:55:33.555Z,2.51
2023-03-29T20:58:02.332Z,2.82
2023-03-29T21:00:32.649Z,2.80
2023-03-29T21:03:00.864Z,2.54
2023-03-29T21:05:32.322Z,2.94
2023-03-29T21:08:01.036Z,3.18
2023-03-29T21:10:29.725Z,2.71
2023-03-29T21:13:00.654Z,3.04
2023-03-29T21:15:31.085Z,2.94
2023-03-29T21:17:59.524Z,2.88
2023-03-29T21:20:27.680Z,3.22
2023-03-29T21:22:55.720Z,3.02
2023-03-29T21:25:23.499Z,2.91
2023-03-29T21:27:51.303Z,2.68
2023-03-29T21:30:19.273Z,2.84
2023-03-29T21:32:47.106Z,2.85
2023-03-29T21:35:14.882Z,2.54
2023-03-29T21:37:42.679Z,2.65
2023-03-29T21:40:11.376Z,2.91
2023-03-29T21:42:39.191Z,2.97
2023-03-29T21:45:07.784Z,2.92
2023-03-29T21:47:35.916Z,2.79
2023-03-29T21:50:03.857Z,2.77
2023-03-29T21:52:31.774Z,2.83
2023-03-29T21:54:59.489Z,2.69
2023-03-29T21:57:27.209Z,2.79
2023-03-29T21:59:55.017Z,2.93
2023-03-29T22:02:23.132Z,2.89
2023-03-29T22:04:51.059Z,3.06
2023-03-29T22:07:22.828Z,2.90
2023-03-29T22:09:50.805Z,2.98
2023-03-29T22:12:18.818Z,2.73
2023-03-29T22:14:47.488Z,2.95
2023-03-29T22:17:16.106Z,2.67
2023-03-29T22:19:43.993Z,2.98
2023-03-29T22:22:14.737Z,3.35
2023-03-29T22:24:42.897Z,2.90
2023-03-29T22:27:11.864Z,2.78
2023-03-29T22:29:40.131Z,2.82
2023-03-29T22:32:08.078Z,2.96
2023-03-29T22:34:36.009Z,3.10
2023-03-29T22:37:03.927Z,2.67
2023-03-29T22:39:34.509Z,2.89
2023-03-29T22:42:02.451Z,3.01
2023-03-29T22:44:30.698Z,2.96
2023-03-29T22:46:58.535Z,2.91
2023-03-29T22:49:26.393Z,2.90
2023-03-29T22:51:54.121Z,2.88
2023-03-29T22:54:22.045Z,2.83
2023-03-29T22:56:49.916Z,2.82
2023-03-29T22:59:17.707Z,2.92
2023-03-29T23:01:46.021Z,2.77
2023-03-29T23:04:14.365Z,3.01
2023-03-29T23:06:42.676Z,3.12
2023-03-29T23:09:10.710Z,3.09
2023-03-29T23:11:38.417Z,2.90
2023-03-29T23:14:06.406Z,2.62
2023-03-29T23:16:34.425Z,2.81
2023-03-29T23:19:03.251Z,2.95
2023-03-29T23:21:31.168Z,2.78
2023-03-29T23:23:59.020Z,2.71
2023-03-29T23:26:27.870Z,2.56
2023-03-29T23:28:57.631Z,2.89
2023-03-29T23:31:25.604Z,3.01
2023-03-29T23:33:53.567Z,3.08
2023-03-29T23:36:27.206Z,3.05
2023-03-29T23:38:54.982Z,2.99
2023-03-29T23:41:23.061Z,3.04
2023-03-29T23:43:52.377Z,3.13
2023-03-29T23:46:21.491Z,3.05
2023-03-29T23:48:50.824Z,2.89
2023-03-29T23:51:23.346Z,2.69
2023-03-29T23:53:51.846Z,2.72
2023-03-29T23:56:21.492Z,3.16
2023-03-29T23:58:49.637Z,3.30
